Aviation Digital Data Service (ADDS)

Output produced by METARs form (0656 UTC 24 March 2019)
found at http://www.aviationweather.gov/metar/data/
 
KAKO 240653Z AUTO 32007KT 10SM OVC090 03/02 A3000 RMK AO2 SLP164 T00330022 400500011
KALS 240652Z AUTO 18007KT 10SM CLR M04/M08 A3011 RMK AO2 SLP188 T10391078 401061078
KALS 240522Z 2406/2506 VRB05KT P6SM FEW080 SCT200 
     FM241900 29012G20KT P6SM SCT080 BKN120 
     FM250200 30007KT P6SM SCT200
       
KASE 240653Z 20007KT 10SM FEW065 M01/M05 A3010 RMK AO2 SLP157 T10111050 400561033
KASE 240534Z 2406/2506 14005KT P6SM OVC070 
     FM241600 VRB04KT 6SM -SHSN BKN030 OVC050 
     FM242100 29007KT 6SM -SHSN VCTS BKN040CB 
     FM250300 24004KT P6SM VCSH BKN040
       
KBDU 240654Z AUTO 00000KT 10SM CLR 01/00 A3001 RMK AO2
KAEJ 240655Z AUTO 30006KT 10SM CLR 00/M06 A3009 RMK AO2 T10031063
KITR 240653Z AUTO 30006KT 10SM CLR 01/00 A3001 RMK AO2 SLP164 T00060000 400940006
K1V6 240650Z AUTO 31005KT 10SM CLR 03/00 A3006 RMK AO2
KCOS 240654Z 00000KT 10SM FEW015 FEW090 01/M02 A3007 RMK AO2 SLP180 T00111017 401281006
KCOS 240522Z 2406/2506 01006KT P6SM FEW090 SCT200 
     FM241600 15007KT P6SM FEW090 
     FM242000 14012KT P6SM VCSH SCT070 BKN100 
     FM250200 06007KT P6SM SCT080 SCT120
       
KFLY 240635Z AUTO 32003KT 10SM CLR M03/M04 A3007 RMK AO2 T10291039
KCEZ 240653Z AUTO 08003KT 10SM CLR 00/M03 A3010 RMK AO2 SLP172 T00001028 401221017
KCAG 240653Z AUTO 00000KT 10SM SCT080 M01/M03 A3008 RMK AO2 SLP195 T10061033 400831067
KAJZ 240655Z AUTO 00000KT 10SM SCT070 OVC085 05/01 A3009 RMK AO2 T00520009
KAPA 240653Z 18007KT 10SM CLR 01/M01 A3002 RMK AO2 SLP170 T00111006 400780011
KAPA 240523Z 2406/2506 19007KT P6SM FEW100 SCT250 
     FM241800 11010KT P6SM VCSH SCT070 BKN100 
     FM242000 07008KT P6SM SCT050 OVC070 
     PROB30 2420/2502 VRB15G25KT -SHRA BKN040 
     FM250200 13005KT P6SM SCT050 BKN090 
     PROB30 2502/2506 -SHRA BKN045
       
KDEN 240653Z 17011KT 10SM CLR 01/M01 A3002 RMK AO2 SLP165 T00061006 400721006
KDEN 240523Z 2406/2512 19010KT P6SM FEW140 SCT250 
     FM241800 11010KT P6SM VCSH SCT070 BKN100 
     FM242000 07008KT P6SM SCT050 OVC070 
     PROB30 2421/2502 VRB15G25KT -SHRA BKN040 
     FM250200 13005KT P6SM SCT050 BKN090 
     PROB30 2502/2506 -SHRA BKN045 
     FM250800 20008KT P6SM FEW150 SCT220
       
KFTG 240654Z AUTO 19009KT 10SM CLR 01/00 A3003 RMK AO2 T00110000
KBJC 240652Z AUTO 19005KT 10SM CLR 02/00 A3002 RMK AO2
KBJC 240523Z 2406/2506 VRB05KT P6SM FEW110 SCT250 
     FM241700 11008KT P6SM VCSH SCT070 BKN100 
     FM241900 30006KT P6SM SCT050 OVC070 
     PROB30 2420/2502 VRB15G25KT -SHRA BKN040 
     FM250200 VRB04KT P6SM SCT050 BKN090 
     PROB30 2502/2506 -SHRA BKN045
       
KDRO 240653Z AUTO 00000KT 10SM CLR 01/M03 A3011 RMK AO2 SLP185 T00061028 401061044
KDRO 240534Z 2406/2506 26004KT P6SM SCT200 
     FM241600 25007KT P6SM VCSH SCT040 BKN090 
     FM242200 27011KT P6SM FEW050 SCT250 
     FM250200 34005KT P6SM SKC
       
KEGE 240556Z AUTO 00000KT 10SM OVC080 01/M03 A3013 RMK AO2 SLP213 T00111033 10089 20011 400941006 50003 FZRANO
KEGE 240534Z 2406/2506 10004KT P6SM BKN080 
     FM241600 00000KT P6SM VCSH BKN035 OVC080 
     FM241900 23006KT P6SM VCTS SCT030CB BKN060 
     FM250300 12004KT P6SM VCSH SCT035 BKN070
       
KEIK 240653Z AUTO 00000KT 10SM CLR 03/01 A3007 RMK AO2 T00290006
KFNL 240556Z AUTO 19006KT 10SM CLR 02/M01 A3002 RMK AO2 SLP165 T00171006 10094 20017 50002 FZRANO
KFMM 240655Z AUTO 28005KT 10SM 03/02 A3003 RMK AO2 T00260015
KGNB 240645Z AUTO 00000KT 10SM CLR M05/M09 A3013 RMK AO2 T10501087
KGJT 240653Z AUTO 11005KT 10SM FEW070 BKN085 06/02 A3005 RMK AO2 SLP157 T00560017 401280028
KGJT 240534Z 2406/2506 11007KT P6SM OVC110 
     FM241400 13005KT P6SM VCSH SCT045 BKN080 
     FM241800 19005KT P6SM VCTS SCT045CB BKN090 
     FM242200 27007KT P6SM VCSH SCT060 BKN110 
     FM250200 04006KT P6SM SCT120
       
KGXY 240556Z AUTO 23004KT 10SM CLR 02/01 A3003 RMK AO2 SLP193 60000 T00170006 10078 20017 51008 FZRANO
KGUC 240556Z AUTO 01003KT 10SM CLR M02/M05 A3013 RMK AO2 SLP213 T10221050 10044 21028 400441033 50000 FZRANO
KGUC 240534Z 2406/2506 16003KT P6SM BKN080 
     FM241400 VRB03KT P6SM VCSH SCT040 BKN045 
     FM242100 27009KT P6SM VCTS SCT035CB BKN080 
     FM250200 34004KT P6SM VCSH SCT040 BKN080
       
KHDN 240556Z AUTO 12004KT 10SM FEW075 00/M04 A3010 RMK AO2 SLP201 T00001039 10044 20000 400611022 50001 FZRANO
KHDN 240534Z 2406/2506 07006KT P6SM BKN080 
     FM241600 18005KT P6SM VCSH BKN030 OVC050 
     FM241800 24005KT 6SM -SHSN VCTS BKN030CB OVC050 
     FM250000 15004KT P6SM FEW050 SCT110
       
KHEQ 240650Z AUTO 30004KT 10SM BKN032 BKN070 05/03 A3001 RMK AO2
K20V 240653Z AUTO 00000KT 10SM CLR M03/M05 A3012 RMK AO2
KLHX 240653Z AUTO 24010KT 10SM CLR 04/01 A3006 RMK AO2 SLP164 T00390011 401560028
KLAA 240653Z AUTO 26006KT 10SM CLR 02/01 A3004 RMK AO2 SLP162 T00220006 401560011
KLXV 240653Z AUTO 06005KT 10SM OVC049 M07/M11 A3011 RMK AO2 SLP160 T10671106 400111072
KLIC 240555Z AUTO 28010KT 10SM CLR 01/00 A3003 RMK AO2 SLP177 T00060000 10028 20000 50006
KLMO 240635Z AUTO 30003KT 7SM CLR 00/M02 A3003 RMK AO2 T10011016
KEEO 240653Z AUTO 06004KT 10SM OVC090 00/M03 A3008 RMK AO2 SLP176 T00001028 400831017
KMTJ 240653Z AUTO 11007KT 10SM BKN090 03/M01 A3010 RMK AO2 SLP174 T00331006 400940000
KMTJ 240534Z 2406/2506 12006KT P6SM BKN100 
     FM241400 VRB04KT P6SM VCSH BKN035 OVC045 
     FM242300 26007KT P6SM VCTS SCT050CB BKN120 
     FM250300 15007KT P6SM SCT060 BKN150
       
KAIB 240655Z AUTO 11008KT 10SM SCT085 04/00 A3011 RMK AO2
KPSO 240655Z AUTO 03003KT 10SM CLR M01/M04 A3014 RMK AO2 T10081045
KPUB 240653Z AUTO 00000KT 10SM CLR 01/M01 A3006 RMK AO2 SLP171 T00111006 401670000
KPUB 240522Z 2406/2506 29007KT P6SM FEW040 SCT200 
     FM240800 36005KT P6SM FEW100 SCT200 
     FM241600 12006KT P6SM FEW100 
     FM242000 11012KT P6SM VCSH SCT080 BKN120 
     FM250200 08007KT P6SM SCT080 SCT120
       
K4V0 240635Z AUTO 13005KT 10SM CLR 03/00 A3006 RMK AO2 T00281002
KRIL 240653Z AUTO 09003KT 10SM OVC075 02/M01 A3009 RMK AO2 SLP182 T00171011 401110011
KRIL 240534Z 2406/2506 06003KT P6SM BKN080 
     FM241500 VRB03KT P6SM VCSH BKN040 OVC045 
     FM242100 25009KT P6SM VCTS SCT050CB BKN090 
     FM250300 28005KT P6SM VCSH SCT050 BKN090
       
KANK 240655Z AUTO 30003KT 10SM CLR 02/M06 A3016 RMK AO1 T00211059
KSBS 240636Z AUTO 19003KT 10SM SCT055 SCT065 00/M03 A3009 RMK AO1 T10041034
KSTK 240650Z AUTO 00000KT 10SM -DZ SCT027 SCT044 OVC065 05/04 A3000 RMK AO2
KTEX 240635Z AUTO 00000KT 10SM BKN050 00/M04 A3016 RMK AO2
KTEX 240534Z 2406/2506 00000KT P6SM SKC 
     FM241200 18006KT P6SM VCSH BKN015 OVC030 
     FM241500 23005KT P6SM VCSH BKN015 OVC020 
     FM241800 26008KT P6SM VCTS SCT015CB BKN035 
     FM242300 26008KT P6SM FEW025 SCT080
       
KTAD 240654Z AUTO 22004KT 10SM OVC021 02/01 A3008 RMK AO2 SLP155 T00220006 401671028
K33V 240655Z AUTO 13004KT 10SM CLR M06/M10 A3011 RMK AO1
K2V5 240655Z AUTO 29004KT 10SM OVC055 05/05 A3000 RMK AO2
K2V6 240649Z AUTO 27004KT 10SM -DZ SCT055 OVC065 03/02 A3000 RMK AO2